Time;durP1;ratioP1;P1;durP2;ratioP2;P2;SDS_P1;SDS_P2;PMS_P1;PMS_P2;Temp;Humidity;BMP_temperature;BMP_pressure;BME280_temperature;BME280_humidity;BME280_pressure;Samples;Min_cycle;Max_cycle;Signal;HPM_P1;HPM_P2
2021/01/03 00:01:30;;;;;;;7.38;3.90;;;1.00;99.90;;;;;;5047866;28;20115;-76
2021/01/03 00:03:56;;;;;;;7.97;3.83;;;1.00;99.90;;;;;;5047584;28;20036;-76
2021/01/03 00:06:22;;;;;;;7.35;3.97;;;1.00;99.90;;;;;;5062217;28;20283;-76
2021/01/03 00:08:48;;;;;;;6.53;3.70;;;1.00;99.90;;;;;;5067475;28;20067;-76
2021/01/03 00:11:14;;;;;;;7.63;3.63;;;1.00;99.90;;;;;;5066767;28;20491;-76
2021/01/03 00:13:39;;;;;;;6.72;3.90;;;1.00;99.90;;;;;;5049919;28;20055;-76
2021/01/03 00:16:05;;;;;;;8.38;3.63;;;1.00;99.90;;;;;;5067643;28;20021;-76
2021/01/03 00:18:32;;;;;;;7.43;4.22;;;1.00;99.90;;;;;;5067476;28;20123;-76
2021/01/03 00:20:58;;;;;;;9.65;4.63;;;1.10;99.90;;;;;;5054894;28;20041;-76
2021/01/03 00:23:23;;;;;;;5.97;3.67;;;1.00;99.90;;;;;;5045968;28;20127;-76
2021/01/03 00:25:49;;;;;;;7.63;3.45;;;1.00;99.90;;;;;;5046349;28;20036;-76
2021/01/03 00:28:15;;;;;;;6.45;3.20;;;1.00;99.90;;;;;;5047374;28;20032;-76
2021/01/03 00:30:42;;;;;;;7.55;3.28;;;1.00;99.90;;;;;;5047172;28;20132;-76
2021/01/03 00:33:08;;;;;;;6.63;3.20;;;1.00;99.90;;;;;;5046012;28;20036;-77
2021/01/03 00:35:34;;;;;;;8.27;3.78;;;1.10;99.90;;;;;;5047575;28;20033;-76
2021/01/03 00:38:04;;;;;;;8.27;4.00;;;1.10;99.90;;;;;;5047150;28;20017;-76
2021/01/03 00:40:31;;;;;;;7.93;4.10;;;1.10;99.90;;;;;;5047302;28;20068;-76
2021/01/03 00:42:57;;;;;;;8.82;4.13;;;1.10;99.90;;;;;;5058440;28;20044;-76
2021/01/03 00:45:23;;;;;;;7.55;3.78;;;1.10;99.90;;;;;;5069886;28;20032;-76
2021/01/03 00:47:49;;;;;;;6.78;3.80;;;1.10;99.90;;;;;;5071757;28;20043;-76
2021/01/03 00:50:15;;;;;;;6.20;3.38;;;1.10;99.90;;;;;;5069900;28;20024;-76
2021/01/03 00:52:41;;;;;;;6.13;3.28;;;1.00;99.90;;;;;;5069816;28;20025;-76
2021/01/03 00:55:09;;;;;;;6.18;3.83;;;1.00;99.90;;;;;;5069869;28;20051;-76
2021/01/03 00:57:36;;;;;;;6.97;3.65;;;1.00;99.90;;;;;;5069929;28;20116;-76
2021/01/03 01:00:16;;;;;;;7.30;3.97;;;1.10;99.90;;;;;;5070810;28;20059;-76
2021/01/03 01:02:42;;;;;;;8.48;3.95;;;1.00;99.90;;;;;;5069746;28;20032;-76
2021/01/03 01:05:09;;;;;;;10.43;4.93;;;1.10;99.90;;;;;;5061137;28;20056;-77
2021/01/03 01:07:34;;;;;;;6.88;3.85;;;1.10;99.90;;;;;;5065512;28;20064;-76
2021/01/03 01:10:00;;;;;;;10.77;4.75;;;1.10;99.90;;;;;;5070470;28;20056;-76
2021/01/03 01:12:26;;;;;;;7.82;4.05;;;1.10;99.90;;;;;;5069237;28;20029;-76
2021/01/03 01:14:52;;;;;;;7.45;4.00;;;1.00;99.90;;;;;;5070838;28;20016;-76
2021/01/03 01:17:17;;;;;;;12.55;5.10;;;1.00;99.90;;;;;;5069452;28;20037;-76
2021/01/03 01:19:43;;;;;;;9.55;5.15;;;1.00;99.90;;;;;;5070314;28;20024;-76
2021/01/03 01:22:09;;;;;;;13.25;5.20;;;1.00;99.90;;;;;;5070533;28;20063;-76
2021/01/03 01:24:34;;;;;;;10.23;4.57;;;1.00;99.90;;;;;;5052760;28;20043;-77
2021/01/03 01:27:00;;;;;;;10.48;5.25;;;0.90;99.90;;;;;;5069470;28;20044;-76
2021/01/03 01:29:26;;;;;;;12.07;5.40;;;1.00;99.90;;;;;;5070575;28;20760;-76
2021/01/03 01:31:51;;;;;;;11.13;5.28;;;1.00;99.90;;;;;;5050390;28;20025;-76
2021/01/03 01:34:17;;;;;;;12.40;6.07;;;0.90;99.90;;;;;;5068922;28;20032;-76
2021/01/03 01:36:43;;;;;;;14.25;6.38;;;1.00;99.90;;;;;;5069013;28;20028;-76
2021/01/03 01:39:09;;;;;;;14.30;5.82;;;0.90;99.90;;;;;;5068782;28;20398;-77
2021/01/03 01:41:34;;;;;;;16.30;6.85;;;0.90;99.90;;;;;;5070603;28;20032;-77
2021/01/03 01:44:00;;;;;;;16.02;6.10;;;0.90;99.90;;;;;;5069240;28;20075;-76
2021/01/03 01:46:58;;;;;;;14.95;6.35;;;0.90;99.90;;;;;;5069080;28;20036;-77
2021/01/03 01:49:23;;;;;;;12.48;6.25;;;0.90;99.90;;;;;;5069417;28;20127;-76
2021/01/03 01:51:52;;;;;;;13.75;7.18;;;0.80;99.90;;;;;;5070241;28;20158;-77
2021/01/03 01:54:27;;;;;;;16.95;7.88;;;0.80;99.90;;;;;;5051994;28;20040;-77
2021/01/03 01:56:53;;;;;;;;;;;0.80;99.90;;;;;;5069468;28;20029;-77
2021/01/03 01:59:50;;;;;;;15.77;7.15;;;0.80;99.90;;;;;;5067225;28;19912;-76
2021/01/03 02:02:46;;;;;;;14.27;6.75;;;0.80;99.90;;;;;;5070682;28;20024;-77
2021/01/03 02:05:21;;;;;;;13.00;6.00;;;0.80;99.90;;;;;;5069624;28;20047;-77
2021/01/03 02:08:07;;;;;;;12.07;6.75;;;0.80;99.90;;;;;;5069309;28;20071;-77
2021/01/03 02:10:35;;;;;;;14.63;7.47;;;0.80;99.90;;;;;;5069692;28;20028;-77
2021/01/03 02:13:30;;;;;;;16.17;6.95;;;0.80;99.90;;;;;;5069826;28;20036;-77
2021/01/03 02:15:59;;;;;;;14.10;6.93;;;0.80;99.90;;;;;;5086282;28;20023;-77
2021/01/03 02:18:27;;;;;;;14.02;6.80;;;0.80;99.90;;;;;;5089703;28;20071;-77
2021/01/03 02:21:14;;;;;;;11.77;6.28;;;0.70;99.90;;;;;;5072193;28;20281;-77
2021/01/03 02:23:46;;;;;;;16.42;6.90;;;0.70;99.90;;;;;;5088317;28;20032;-77
2021/01/03 02:26:13;;;;;;;15.43;7.40;;;0.70;99.90;;;;;;5088774;28;20085;-77
2021/01/03 02:28:43;;;;;;;18.20;7.20;;;0.70;99.90;;;;;;5088310;28;20097;-77
2021/01/03 02:31:13;;;;;;;12.02;6.53;;;0.70;99.90;;;;;;5088476;28;20158;-77
2021/01/03 02:33:42;;;;;;;16.08;7.55;;;0.60;99.90;;;;;;5088293;28;20032;-78
2021/01/03 02:36:12;;;;;;;14.73;7.30;;;0.70;99.90;;;;;;5088710;28;20656;-77
2021/01/03 02:38:46;;;;;;;15.27;7.35;;;0.70;99.90;;;;;;5089270;28;20078;-77
2021/01/03 02:41:12;;;;;;;16.13;6.68;;;0.60;99.90;;;;;;5076832;28;20060;-77
2021/01/03 02:43:37;;;;;;;14.35;7.20;;;0.60;99.90;;;;;;5065868;28;20075;-77
2021/01/03 02:46:03;;;;;;;14.27;6.65;;;0.60;99.90;;;;;;5068514;28;20116;-77
2021/01/03 02:48:29;;;;;;;15.63;6.57;;;0.70;99.90;;;;;;5067955;28;20075;-77
2021/01/03 02:50:55;;;;;;;17.77;7.10;;;0.70;99.90;;;;;;5069555;28;20036;-77
2021/01/03 02:53:21;;;;;;;17.10;7.90;;;0.70;99.90;;;;;;5051261;28;20048;-77
2021/01/03 02:55:47;;;;;;;18.52;7.70;;;0.70;99.90;;;;;;5051541;28;20119;-77
2021/01/03 02:58:13;;;;;;;12.23;6.97;;;0.70;99.90;;;;;;5069176;28;20104;-77
2021/01/03 03:00:39;;;;;;;13.00;7.25;;;0.60;99.90;;;;;;5067796;28;20024;-77
2021/01/03 03:03:07;;;;;;;16.67;7.93;;;0.60;99.90;;;;;;5072214;28;20026;-77
2021/01/03 03:05:32;;;;;;;13.38;7.18;;;0.60;99.90;;;;;;5085325;28;20076;-77
2021/01/03 03:07:58;;;;;;;15.40;7.07;;;0.60;99.90;;;;;;5067573;28;20518;-77
2021/01/03 03:10:24;;;;;;;14.02;6.60;;;0.60;99.90;;;;;;5070456;28;20033;-77
2021/01/03 03:12:53;;;;;;;13.98;6.60;;;0.60;99.90;;;;;;5047869;28;20057;-78
2021/01/03 03:15:20;;;;;;;15.45;7.22;;;0.60;99.90;;;;;;5037017;28;20549;-77
2021/01/03 03:17:46;;;;;;;12.82;7.45;;;0.60;99.90;;;;;;5061890;28;20099;-77
2021/01/03 03:20:13;;;;;;;15.52;7.82;;;0.60;99.90;;;;;;5064093;28;20028;-77
2021/01/03 03:22:39;;;;;;;15.00;6.88;;;0.70;99.90;;;;;;5066841;28;20031;-77
2021/01/03 03:25:07;;;;;;;16.50;7.50;;;0.70;99.90;;;;;;5056809;28;20526;-77
2021/01/03 03:27:33;;;;;;;16.08;7.32;;;0.70;99.90;;;;;;5067930;28;20468;-77
2021/01/03 03:29:58;;;;;;;12.07;7.28;;;0.70;99.90;;;;;;5067494;28;20024;-77
2021/01/03 03:32:24;;;;;;;13.65;6.70;;;0.70;99.90;;;;;;5067234;28;20509;-77
2021/01/03 03:34:50;;;;;;;15.57;6.63;;;0.70;99.90;;;;;;5067436;28;20170;-77
2021/01/03 03:37:16;;;;;;;15.32;7.32;;;0.70;99.90;;;;;;5068012;28;20039;-77
2021/01/03 03:39:41;;;;;;;13.73;6.43;;;0.60;99.90;;;;;;5068724;28;20029;-77
2021/01/03 03:42:07;;;;;;;15.80;7.20;;;0.60;99.90;;;;;;5063219;28;20032;-77
2021/01/03 03:44:33;;;;;;;12.30;6.25;;;0.70;99.90;;;;;;5048575;28;20032;-78
2021/01/03 03:47:01;;;;;;;15.85;7.70;;;0.70;99.90;;;;;;5064305;28;20029;-77
2021/01/03 03:49:28;;;;;;;12.32;6.63;;;0.70;99.90;;;;;;5068347;28;20040;-78
2021/01/03 03:52:00;;;;;;;14.15;6.80;;;0.70;99.90;;;;;;5068259;28;20024;-77
2021/01/03 03:54:26;;;;;;;15.27;6.75;;;0.70;99.90;;;;;;5068722;28;20032;-77
2021/01/03 03:57:02;;;;;;;13.82;5.97;;;0.70;99.90;;;;;;5050847;28;20055;-77
2021/01/03 03:59:29;;;;;;;12.32;6.75;;;0.70;99.90;;;;;;5050463;28;20424;-77
2021/01/03 04:01:56;;;;;;;14.75;6.50;;;0.70;99.90;;;;;;5068424;28;20078;-78
2021/01/03 04:04:23;;;;;;;13.20;7.07;;;0.70;99.90;;;;;;5068492;28;20065;-77
2021/01/03 04:06:48;;;;;;;13.15;6.65;;;0.70;99.90;;;;;;5067355;28;20028;-77
2021/01/03 04:09:15;;;;;;;12.13;6.00;;;0.70;99.90;;;;;;5067015;28;20391;-78
2021/01/03 04:11:42;;;;;;;12.60;5.68;;;0.70;99.90;;;;;;5067237;28;20200;-77
2021/01/03 04:14:09;;;;;;;12.45;6.43;;;0.60;99.90;;;;;;5068622;28;20387;-78
2021/01/03 04:16:35;;;;;;;12.45;6.55;;;0.70;99.90;;;;;;5068396;28;20506;-78
2021/01/03 04:19:01;;;;;;;12.18;6.10;;;0.70;99.90;;;;;;5068339;28;20029;-77
2021/01/03 04:21:26;;;;;;;11.68;5.72;;;0.70;99.90;;;;;;5067268;28;20029;-78
2021/01/03 04:23:52;;;;;;;13.40;6.00;;;0.70;99.90;;;;;;5050400;28;20032;-77
2021/01/03 04:26:22;;;;;;;10.15;6.13;;;0.70;99.90;;;;;;5050304;28;20137;-78
2021/01/03 04:28:48;;;;;;;10.82;5.53;;;0.70;99.90;;;;;;5067934;28;20032;-77
2021/01/03 04:31:18;;;;;;;11.68;6.00;;;0.70;99.90;;;;;;5067554;28;20436;-77
2021/01/03 04:33:44;;;;;;;9.45;5.50;;;0.70;99.90;;;;;;5068283;28;20111;-78
2021/01/03 04:36:16;;;;;;;10.60;5.82;;;0.70;99.90;;;;;;5067296;28;20029;-77
2021/01/03 04:38:42;;;;;;;9.43;5.05;;;0.70;99.90;;;;;;5067459;28;20021;-77
2021/01/03 04:41:31;;;;;;;10.10;5.53;;;0.80;99.90;;;;;;5067309;28;20032;-77
2021/01/03 04:44:01;;;;;;;11.05;6.00;;;0.80;99.90;;;;;;5046939;28;20115;-77
2021/01/03 04:46:29;;;;;;;9.88;5.25;;;0.80;99.90;;;;;;5041607;28;20052;-77
2021/01/03 04:49:02;;;;;;;10.93;5.78;;;0.80;99.90;;;;;;5067866;28;20041;-78
2021/01/03 04:51:38;;;;;;;9.05;4.95;;;0.80;99.90;;;;;;5066977;28;20033;-77
2021/01/03 04:54:13;;;;;;;10.02;5.03;;;0.80;99.90;;;;;;5068191;28;20037;-77
2021/01/03 04:56:41;;;;;;;9.13;5.10;;;0.80;99.90;;;;;;5066576;28;20040;-78
2021/01/03 04:59:23;;;;;;;8.77;5.57;;;0.80;99.90;;;;;;5067645;28;20020;-77
2021/01/03 05:02:11;;;;;;;9.82;4.95;;;0.80;99.90;;;;;;5067892;28;20036;-77
2021/01/03 05:04:49;;;;;;;10.50;5.45;;;0.80;99.90;;;;;;5050076;28;20036;-77
2021/01/03 05:07:17;;;;;;;10.43;5.35;;;0.80;99.90;;;;;;5066612;28;20364;-77
2021/01/03 05:09:44;;;;;;;10.50;5.43;;;0.70;99.90;;;;;;5068438;28;20033;-77
2021/01/03 05:12:25;;;;;;;11.82;5.50;;;0.80;99.90;;;;;;5087726;28;20720;-77
2021/01/03 05:15:01;;;;;;;8.40;4.78;;;0.80;99.90;;;;;;5086571;28;20061;-77
2021/01/03 05:17:27;;;;;;;9.63;5.30;;;0.80;99.90;;;;;;5086250;28;20032;-77
2021/01/03 05:19:53;;;;;;;9.13;5.13;;;0.70;99.90;;;;;;5076412;28;20071;-77
2021/01/03 05:22:31;;;;;;;11.10;5.68;;;0.80;99.90;;;;;;5048999;28;20623;-77
2021/01/03 05:24:59;;;;;;;9.57;4.80;;;0.80;99.90;;;;;;5076215;28;20034;-77
2021/01/03 05:27:26;;;;;;;10.75;5.32;;;0.80;99.90;;;;;;5087862;28;20085;-78
2021/01/03 05:29:52;;;;;;;9.38;5.18;;;0.80;99.90;;;;;;5082913;28;20501;-77
2021/01/03 05:32:33;;;;;;;9.85;5.15;;;0.80;99.90;;;;;;5070550;28;20032;-77
2021/01/03 05:34:59;;;;;;;9.73;5.13;;;0.80;99.90;;;;;;5069986;28;20525;-77
2021/01/03 05:37:29;;;;;;;8.95;4.70;;;0.90;99.90;;;;;;5071087;28;20025;-77
2021/01/03 05:39:55;;;;;;;9.52;4.75;;;0.90;99.90;;;;;;5071019;28;20032;-77
2021/01/03 05:42:36;;;;;;;9.63;5.05;;;0.80;99.90;;;;;;5071275;28;20451;-77
2021/01/03 05:45:23;;;;;;;10.45;5.22;;;0.90;99.90;;;;;;5069781;28;20048;-77
2021/01/03 05:48:02;;;;;;;8.93;4.65;;;0.90;99.90;;;;;;5055702;28;20051;-77
2021/01/03 05:50:41;;;;;;;8.13;4.25;;;0.80;99.90;;;;;;5084378;28;20093;-77
2021/01/03 05:53:18;;;;;;;8.70;4.72;;;0.80;99.90;;;;;;5072430;28;20021;-77
2021/01/03 05:55:59;;;;;;;7.47;4.22;;;0.80;99.90;;;;;;5080631;28;20028;-77
2021/01/03 05:58:40;;;;;;;9.00;4.85;;;0.80;99.90;;;;;;5090642;28;20028;-77
2021/01/03 06:01:19;;;;;;;9.07;4.70;;;0.80;99.90;;;;;;5072710;28;20788;-77
2021/01/03 06:04:04;;;;;;;7.53;4.78;;;0.80;99.90;;;;;;5090598;28;20040;-77
2021/01/03 06:06:50;;;;;;;8.75;4.35;;;0.80;99.90;;;;;;5089602;28;20051;-77
2021/01/03 06:09:17;;;;;;;6.32;4.35;;;0.80;99.90;;;;;;5074667;28;20071;-77
2021/01/03 06:12:23;;;;;;;6.63;4.53;;;0.90;99.90;;;;;;5070911;28;20033;-77
2021/01/03 06:15:15;;;;;;;6.13;3.65;;;0.90;99.90;;;;;;5049754;28;20146;-77
2021/01/03 06:17:45;;;;;;;10.23;5.13;;;0.90;99.90;;;;;;5067816;28;20044;-77
2021/01/03 06:20:19;;;;;;;7.15;4.32;;;0.90;99.90;;;;;;5068353;28;20035;-77
2021/01/03 06:22:57;;;;;;;8.60;4.68;;;0.90;99.90;;;;;;5069692;28;20048;-77
2021/01/03 06:25:29;;;;;;;5.95;4.10;;;0.90;99.90;;;;;;5070037;28;20039;-77
2021/01/03 06:28:04;;;;;;;7.30;4.15;;;0.80;99.90;;;;;;5069635;28;20674;-77
2021/01/03 06:30:32;;;;;;;7.27;4.30;;;0.80;99.90;;;;;;5069957;28;20029;-77
2021/01/03 06:33:14;;;;;;;7.43;4.43;;;0.80;99.90;;;;;;5068236;28;20541;-77
2021/01/03 06:35:56;;;;;;;10.02;4.45;;;0.80;99.90;;;;;;5068953;28;20434;-77
2021/01/03 06:38:52;;;;;;;6.07;4.07;;;0.80;99.90;;;;;;5069935;28;20025;-77
2021/01/03 06:41:43;;;;;;;6.88;4.07;;;0.80;99.90;;;;;;5069604;28;20509;-77
2021/01/03 06:44:43;;;;;;;8.38;4.80;;;0.80;99.90;;;;;;5049357;28;20037;-77
2021/01/03 06:47:26;;;;;;;7.25;4.43;;;0.80;99.90;;;;;;5049879;28;20029;-77
2021/01/03 06:50:03;;;;;;;8.05;5.15;;;0.90;99.90;;;;;;5049128;28;20029;-77
2021/01/03 06:52:35;;;;;;;8.40;4.20;;;0.90;99.90;;;;;;5047630;28;20032;-77
2021/01/03 06:55:38;;;;;;;7.93;4.03;;;0.90;99.90;;;;;;5069804;28;20048;-77
2021/01/03 06:58:19;;;;;;;8.13;3.90;;;0.80;99.90;;;;;;5069990;28;20026;-77
2021/01/03 07:01:22;;;;;;;6.63;4.38;;;0.90;99.90;;;;;;5069346;28;20028;-77
2021/01/03 07:03:51;;;;;;;7.30;4.80;;;0.90;99.90;;;;;;5069094;28;20394;-77
2021/01/03 07:06:18;;;;;;;9.95;6.18;;;0.90;99.90;;;;;;5069125;28;20047;-76
2021/01/03 07:08:53;;;;;;;8.73;5.70;;;0.80;99.90;;;;;;5069256;28;20116;-76
2021/01/03 07:11:49;;;;;;;8.25;5.38;;;0.80;99.90;;;;;;5051906;28;20043;-76
2021/01/03 07:14:24;;;;;;;7.40;5.15;;;0.80;99.90;;;;;;5068926;28;20027;-77
2021/01/03 07:17:04;;;;;;;7.78;5.00;;;0.80;99.90;;;;;;5067734;28;20613;-76
2021/01/03 07:19:30;;;;;;;8.48;4.63;;;0.90;99.90;;;;;;5068690;28;20028;-77
2021/01/03 07:22:11;;;;;;;8.30;4.47;;;0.90;99.90;;;;;;5068948;28;20040;-77
2021/01/03 07:24:40;;;;;;;8.15;4.40;;;0.90;99.90;;;;;;5064325;28;20029;-77
2021/01/03 07:27:23;;;;;;;7.30;4.63;;;0.90;99.90;;;;;;5047744;28;20123;-77
2021/01/03 07:29:51;;;;;;;8.95;4.32;;;0.80;99.90;;;;;;5052293;28;20095;-77
2021/01/03 07:32:17;;;;;;;9.90;4.32;;;0.90;99.90;;;;;;5068425;28;20036;-77
2021/01/03 07:34:50;;;;;;;8.13;4.35;;;0.80;99.90;;;;;;5068640;28;20467;-77
2021/01/03 07:37:24;;;;;;;8.98;5.03;;;0.80;99.90;;;;;;5068883;28;20479;-77
2021/01/03 07:39:59;;;;;;;10.07;6.00;;;0.80;99.90;;;;;;5068358;28;20029;-77
2021/01/03 07:42:33;;;;;;;10.75;6.30;;;0.80;99.90;;;;;;5068729;28;20035;-77
2021/01/03 07:45:05;;;;;;;7.95;5.40;;;0.80;99.90;;;;;;5050834;28;20039;-77
2021/01/03 07:47:52;;;;;;;10.35;5.95;;;0.80;99.90;;;;;;5068790;28;20685;-76
2021/01/03 07:50:30;;;;;;;7.88;5.35;;;0.90;99.90;;;;;;5066801;28;20567;-77
2021/01/03 07:53:26;;;;;;;10.48;6.28;;;0.90;99.90;;;;;;5067786;28;20024;-77
2021/01/03 07:55:53;;;;;;;8.93;4.97;;;0.90;99.90;;;;;;5059339;28;20497;-77
2021/01/03 07:58:21;;;;;;;8.80;5.03;;;0.90;99.90;;;;;;5067251;28;20046;-76
2021/01/03 08:00:56;;;;;;;8.32;5.53;;;0.90;99.90;;;;;;5066908;28;20166;-77
2021/01/03 08:03:24;;;;;;;10.75;6.43;;;0.90;99.90;;;;;;5060852;28;20033;-76
2021/01/03 08:05:51;;;;;;;8.52;5.05;;;0.90;99.90;;;;;;5057268;28;20036;-77
2021/01/03 08:08:19;;;;;;;8.00;5.25;;;0.90;99.90;;;;;;5066707;28;20135;-77
2021/01/03 08:10:46;;;;;;;8.23;5.45;;;0.90;99.90;;;;;;5066097;28;20020;-76
2021/01/03 08:13:26;;;;;;;9.00;5.43;;;1.00;99.90;;;;;;5050198;28;20036;-77
2021/01/03 08:15:57;;;;;;;9.23;5.63;;;1.00;99.90;;;;;;5060880;28;20033;-77
2021/01/03 08:18:24;;;;;;;7.90;4.97;;;1.00;99.90;;;;;;5052038;28;20471;-77
2021/01/03 08:20:50;;;;;;;11.35;5.97;;;1.00;99.90;;;;;;5077565;28;20039;-76
2021/01/03 08:23:26;;;;;;;8.57;5.20;;;1.00;99.90;;;;;;5071265;28;20020;-77
2021/01/03 08:26:06;;;;;;;;;;;1.00;99.90;;;;;;5069137;28;20037;-76
2021/01/03 08:28:35;;;;;;;10.23;5.35;;;1.00;99.90;;;;;;5065473;28;20057;-77
2021/01/03 08:31:01;;;;;;;11.73;6.35;;;1.00;99.90;;;;;;5061744;28;20395;-77
2021/01/03 08:33:39;;;;;;;8.13;5.13;;;0.90;99.90;;;;;;5069475;28;20029;-76
2021/01/03 08:36:22;;;;;;;11.35;5.57;;;1.00;99.90;;;;;;5051428;28;20118;-76
2021/01/03 08:38:49;;;;;;;8.80;5.32;;;1.00;99.90;;;;;;5066589;28;20035;-76
2021/01/03 08:41:21;;;;;;;10.45;5.53;;;1.00;99.90;;;;;;5064914;28;20040;-76
2021/01/03 08:43:48;;;;;;;11.60;6.03;;;1.00;99.90;;;;;;5059796;28;20032;-76
2021/01/03 08:46:28;;;;;;;12.98;5.75;;;1.00;99.90;;;;;;5071261;28;20463;-77
2021/01/03 08:49:10;;;;;;;11.27;5.72;;;1.00;99.90;;;;;;5058574;28;20033;-77
2021/01/03 08:51:37;;;;;;;10.32;6.10;;;1.10;99.90;;;;;;5068873;28;20445;-76
2021/01/03 08:54:06;;;;;;;10.60;5.40;;;1.10;99.90;;;;;;5065506;28;20427;-76
2021/01/03 08:56:36;;;;;;;10.35;5.60;;;1.10;99.90;;;;;;5047193;28;20108;-76
2021/01/03 08:59:03;;;;;;;10.77;5.93;;;1.10;99.90;;;;;;5052205;28;20021;-75
2021/01/03 09:01:31;;;;;;;9.77;5.70;;;1.10;99.90;;;;;;5057788;28;20021;-78
2021/01/03 09:04:03;;;;;;;12.25;5.82;;;1.10;99.90;;;;;;5064602;28;20142;-77
2021/01/03 09:06:30;;;;;;;10.95;6.10;;;1.10;99.90;;;;;;5066541;28;20035;-77
2021/01/03 09:08:57;;;;;;;10.75;6.38;;;1.20;99.90;;;;;;5063006;28;20024;-78
2021/01/03 09:11:33;;;;;;;8.90;5.38;;;1.20;99.90;;;;;;5059208;28;20032;-78
2021/01/03 09:14:21;;;;;;;11.48;5.85;;;1.20;99.90;;;;;;5063280;28;20066;-78
2021/01/03 09:17:06;;;;;;;12.25;6.93;;;1.20;99.90;;;;;;5061959;28;20032;-78
2021/01/03 09:19:55;;;;;;;11.98;6.50;;;1.20;99.90;;;;;;5062299;28;20041;-78
2021/01/03 09:22:40;;;;;;;11.18;5.82;;;1.20;99.90;;;;;;5067355;28;20402;-78
2021/01/03 09:25:15;;;;;;;11.70;6.50;;;1.30;99.90;;;;;;5056125;28;20032;-77
2021/01/03 09:27:41;;;;;;;12.70;5.70;;;1.30;99.90;;;;;;5057231;28;20460;-78
2021/01/03 09:30:12;;;;;;;11.75;7.05;;;1.40;99.90;;;;;;5051652;28;20494;-78
2021/01/03 09:32:41;;;;;;;12.85;7.13;;;1.40;99.90;;;;;;5056842;28;20675;-78
2021/01/03 09:35:28;;;;;;;15.07;6.75;;;1.40;99.90;;;;;;5061731;28;20028;-77
2021/01/03 09:38:35;;;;;;;11.18;6.57;;;1.40;99.90;;;;;;5061077;28;20032;-77
2021/01/03 09:41:31;;;;;;;13.20;6.65;;;1.40;99.90;;;;;;5045565;28;20047;-78
2021/01/03 09:44:18;;;;;;;12.52;6.60;;;1.50;99.90;;;;;;5059285;28;20039;-78
2021/01/03 09:46:55;;;;;;;16.17;7.60;;;1.50;99.90;;;;;;5065628;28;20029;-78
2021/01/03 09:49:21;;;;;;;11.20;6.43;;;1.60;99.90;;;;;;5064330;28;20533;-78
2021/01/03 09:52:26;;;;;;;11.00;6.68;;;1.60;99.90;;;;;;5066448;28;20021;-78
2021/01/03 09:54:55;;;;;;;12.88;6.88;;;1.50;99.90;;;;;;5063567;28;20016;-77
2021/01/03 09:57:47;;;;;;;14.05;6.85;;;1.60;99.90;;;;;;5061727;28;20024;-77
2021/01/03 10:00:17;;;;;;;15.30;6.63;;;1.60;99.90;;;;;;5061960;28;20075;-78
2021/01/03 10:02:43;;;;;;;12.45;6.93;;;1.60;99.90;;;;;;5052170;28;20036;-78
2021/01/03 10:05:38;;;;;;;14.35;7.55;;;1.50;99.90;;;;;;5066109;28;20033;-78
2021/01/03 10:08:08;;;;;;;13.40;6.85;;;1.50;99.90;;;;;;5043265;28;20076;-78
2021/01/03 10:10:49;;;;;;;15.18;7.03;;;1.50;99.90;;;;;;5069602;28;20028;-78
2021/01/03 10:13:16;;;;;;;16.42;8.20;;;1.50;99.90;;;;;;5069152;28;20028;-78
2021/01/03 10:15:43;;;;;;;21.33;9.77;;;1.40;99.90;;;;;;5058325;28;20031;-78
2021/01/03 10:18:37;;;;;;;24.02;9.32;;;1.40;99.90;;;;;;5051311;28;20048;-78
2021/01/03 10:21:38;;;;;;;17.08;8.90;;;1.40;99.90;;;;;;5068459;28;20086;-78
2021/01/03 10:24:12;;;;;;;12.82;7.45;;;1.40;99.90;;;;;;5061658;28;20059;-77
2021/01/03 10:26:38;;;;;;;14.70;8.15;;;1.40;99.90;;;;;;5059714;28;20035;-78
2021/01/03 10:29:05;;;;;;;10.70;6.63;;;1.40;99.90;;;;;;5040906;28;20089;-78
2021/01/03 10:31:51;;;;;;;12.88;6.80;;;1.40;99.90;;;;;;5053678;28;20037;-77
2021/01/03 10:34:20;;;;;;;13.25;6.75;;;1.40;99.90;;;;;;5055717;28;20033;-78
2021/01/03 10:36:46;;;;;;;14.15;7.63;;;1.40;99.90;;;;;;5071413;28;20024;-77
2021/01/03 10:39:15;;;;;;;12.00;6.72;;;1.50;99.90;;;;;;5063511;28;20012;-78
2021/01/03 10:41:40;;;;;;;13.35;7.15;;;1.50;99.90;;;;;;5056540;28;20081;-79
2021/01/03 10:44:09;;;;;;;11.30;6.90;;;1.50;99.90;;;;;;5061819;28;20028;-79
2021/01/03 10:46:36;;;;;;;11.73;6.88;;;1.50;99.90;;;;;;5085358;28;20429;-78
2021/01/03 10:49:02;;;;;;;12.65;7.05;;;1.40;99.90;;;;;;5073854;28;20536;-78
2021/01/03 10:51:34;;;;;;;12.95;7.13;;;1.50;99.90;;;;;;5069206;28;20122;-78
2021/01/03 10:54:01;;;;;;;13.73;8.07;;;1.40;99.90;;;;;;5068652;28;20020;-79
2021/01/03 10:56:28;;;;;;;13.50;6.97;;;1.40;99.90;;;;;;5066087;28;20064;-79
2021/01/03 10:58:54;;;;;;;11.13;6.05;;;1.40;99.90;;;;;;5065506;28;20040;-79
2021/01/03 11:01:20;;;;;;;10.27;6.15;;;1.40;99.90;;;;;;5028736;28;20167;-78
2021/01/03 11:03:46;;;;;;;11.85;6.47;;;1.40;99.90;;;;;;5064823;28;20153;-79
2021/01/03 11:06:12;;;;;;;15.27;6.93;;;1.40;99.90;;;;;;5048178;28;20098;-79
2021/01/03 11:08:39;;;;;;;14.25;6.88;;;1.40;99.90;;;;;;5064679;28;20037;-78
2021/01/03 11:11:05;;;;;;;12.35;7.07;;;1.40;99.90;;;;;;5066839;28;20118;-78
2021/01/03 11:13:31;;;;;;;12.75;6.32;;;1.40;99.90;;;;;;5064991;28;20025;-77
2021/01/03 11:15:57;;;;;;;10.98;5.85;;;1.40;99.90;;;;;;5061703;28;20037;-78
2021/01/03 11:18:23;;;;;;;11.98;6.82;;;1.40;99.90;;;;;;5050227;28;20044;-80
2021/01/03 11:20:49;;;;;;;13.45;7.18;;;1.50;99.90;;;;;;5036798;28;20028;-78
2021/01/03 11:23:15;;;;;;;12.15;6.05;;;1.50;99.90;;;;;;5056032;28;20044;-77
2021/01/03 11:25:46;;;;;;;10.93;6.22;;;1.50;99.90;;;;;;5060693;28;20048;-80
2021/01/03 11:28:13;;;;;;;10.98;6.00;;;1.50;99.90;;;;;;5068813;28;20036;-79
2021/01/03 11:30:39;;;;;;;12.57;6.63;;;1.60;99.90;;;;;;5013659;28;20094;-80
2021/01/03 11:33:05;;;;;;;15.68;8.07;;;1.60;99.90;;;;;;5050425;28;20029;-77
2021/01/03 11:35:30;;;;;;;9.98;5.70;;;1.60;99.90;;;;;;5061221;28;20631;-76
2021/01/03 11:37:56;;;;;;;10.30;6.15;;;1.70;99.90;;;;;;5059236;28;20108;-76
2021/01/03 11:40:22;;;;;;;10.77;5.93;;;1.70;99.90;;;;;;5052425;28;20021;-77
2021/01/03 11:42:49;;;;;;;10.98;6.82;;;1.70;99.90;;;;;;5037815;28;20040;-76
2021/01/03 11:45:19;;;;;;;12.25;6.97;;;1.70;99.90;;;;;;5057681;28;20029;-77
2021/01/03 11:47:45;;;;;;;14.38;7.35;;;1.70;99.90;;;;;;5061058;28;20032;-76
2021/01/03 11:50:15;;;;;;;13.90;6.95;;;1.70;99.90;;;;;;5063362;28;20070;-76
2021/01/03 11:52:41;;;;;;;12.35;6.57;;;1.70;99.90;;;;;;5058575;28;20033;-77
2021/01/03 11:55:10;;;;;;;11.77;6.88;;;1.70;99.90;;;;;;5055990;28;20031;-76
2021/01/03 11:57:36;;;;;;;11.80;6.63;;;1.70;99.90;;;;;;5059577;28;20447;-76
2021/01/03 12:00:07;;;;;;;10.57;6.20;;;1.70;99.90;;;;;;5055856;28;20025;-77
2021/01/03 12:02:38;;;;;;;11.43;6.65;;;1.70;99.90;;;;;;5062104;28;20036;-77
2021/01/03 12:05:05;;;;;;;12.25;6.32;;;1.70;99.90;;;;;;5049877;28;20017;-76
2021/01/03 12:07:31;;;;;;;13.52;6.70;;;1.70;99.90;;;;;;5063887;28;20081;-78
2021/01/03 12:09:56;;;;;;;11.73;7.05;;;1.70;99.90;;;;;;5045984;28;20067;-79
2021/01/03 12:12:22;;;;;;;11.85;6.53;;;1.70;99.90;;;;;;5019954;28;20113;-78
2021/01/03 12:14:49;;;;;;;11.98;6.57;;;1.70;99.90;;;;;;5023705;28;20039;-78
2021/01/03 12:17:21;;;;;;;13.98;7.32;;;1.70;99.90;;;;;;5037170;28;20029;-79
2021/01/03 12:19:49;;;;;;;13.95;6.80;;;1.70;99.90;;;;;;5031762;28;20712;-79
2021/01/03 12:22:15;;;;;;;16.00;7.32;;;1.80;99.90;;;;;;5063484;28;20066;-79
2021/01/03 12:24:43;;;;;;;10.90;6.82;;;1.70;99.90;;;;;;5045901;28;20045;-79
2021/01/03 12:27:16;;;;;;;9.73;5.85;;;1.70;99.90;;;;;;5041836;28;20415;-79
2021/01/03 12:29:42;;;;;;;15.85;7.30;;;1.70;99.90;;;;;;5061864;28;20169;-79
2021/01/03 12:32:10;;;;;;;12.05;7.45;;;1.70;99.90;;;;;;5045265;28;20028;-80
2021/01/03 12:34:36;;;;;;;13.95;7.38;;;1.60;99.90;;;;;;5045009;28;20108;-79
2021/01/03 12:37:09;;;;;;;15.27;7.38;;;1.60;99.90;;;;;;5045609;28;20161;-79
2021/01/03 12:39:36;;;;;;;12.65;6.57;;;1.60;99.90;;;;;;5043847;28;20081;-79
2021/01/03 12:42:02;;;;;;;11.40;6.55;;;1.60;99.90;;;;;;5066349;28;20079;-79
2021/01/03 12:44:28;;;;;;;12.10;7.13;;;1.60;99.90;;;;;;5049886;28;20089;-80
2021/01/03 12:46:59;;;;;;;17.85;8.60;;;1.60;99.90;;;;;;5049776;28;20123;-78
2021/01/03 12:49:25;;;;;;;16.40;8.40;;;1.60;99.90;;;;;;5045886;28;20037;-78
2021/01/03 12:51:52;;;;;;;12.35;7.22;;;1.60;99.90;;;;;;5064700;28;20233;-80
2021/01/03 12:54:19;;;;;;;13.68;8.07;;;1.60;99.90;;;;;;5059176;28;20033;-80
2021/01/03 12:56:45;;;;;;;13.75;7.35;;;1.60;99.90;;;;;;5060053;28;20516;-80
2021/01/03 12:59:10;;;;;;;10.93;6.50;;;1.60;99.90;;;;;;5066795;28;20055;-79
2021/01/03 13:01:38;;;;;;;12.18;7.15;;;1.60;99.90;;;;;;5049206;28;20045;-79
2021/01/03 13:04:06;;;;;;;12.82;6.53;;;1.60;99.90;;;;;;5059079;28;20037;-79
2021/01/03 13:06:33;;;;;;;13.63;6.07;;;1.60;99.90;;;;;;5052744;28;20028;-79
2021/01/03 13:08:59;;;;;;;10.45;6.88;;;1.60;99.90;;;;;;5050094;28;20041;-78
2021/01/03 13:11:25;;;;;;;11.20;6.32;;;1.60;99.90;;;;;;5068725;28;20053;-80
2021/01/03 13:13:51;;;;;;;12.88;6.57;;;1.60;99.90;;;;;;5028570;28;20028;-77